sensor_id;sensor_type;location;lat;lon;timestamp;P1;durP1;ratioP1;P2;durP2;ratioP2
46054;SDS011;31788;6.954;-71.872;2022-09-09T00:02:22;62.43;;;49.63;;
46054;SDS011;31788;6.954;-71.872;2022-09-09T00:05:12;62.50;;;49.28;;
46054;SDS011;31788;6.954;-71.872;2022-09-09T00:07:51;42.88;;;34.80;;
46054;SDS011;31788;6.954;-71.872;2022-09-09T00:13:28;26.27;;;22.17;;
46054;SDS011;31788;6.954;-71.872;2022-09-09T00:21:34;21.00;;;18.08;;
46054;SDS011;31788;6.954;-71.872;2022-09-09T00:24:11;20.50;;;17.60;;
46054;SDS011;31788;6.954;-71.872;2022-09-09T00:27:04;18.05;;;14.82;;
46054;SDS011;31788;6.954;-71.872;2022-09-09T00:30:11;20.05;;;16.90;;
46054;SDS011;31788;6.954;-71.872;2022-09-09T00:32:39;16.70;;;13.10;;
46054;SDS011;31788;6.954;-71.872;2022-09-09T00:35:14;15.13;;;12.95;;
46054;SDS011;31788;6.954;-71.872;2022-09-09T00:37:44;14.45;;;12.02;;
46054;SDS011;31788;6.954;-71.872;2022-09-09T00:43:06;12.68;;;11.30;;
46054;SDS011;31788;6.954;-71.872;2022-09-09T00:49:00;11.10;;;9.35;;
46054;SDS011;31788;6.954;-71.872;2022-09-09T00:56:57;10.77;;;7.90;;
46054;SDS011;31788;6.954;-71.872;2022-09-09T00:59:47;10.43;;;7.80;;
46054;SDS011;31788;6.954;-71.872;2022-09-09T01:04:53;10.50;;;7.18;;
46054;SDS011;31788;6.954;-71.872;2022-09-09T01:07:20;8.70;;;6.80;;
46054;SDS011;31788;6.954;-71.872;2022-09-09T01:12:28;7.60;;;6.63;;
46054;SDS011;31788;6.954;-71.872;2022-09-09T01:15:26;7.78;;;6.15;;
46054;SDS011;31788;6.954;-71.872;2022-09-09T01:18:05;9.70;;;6.15;;
46054;SDS011;31788;6.954;-71.872;2022-09-09T01:26:18;8.32;;;6.50;;
46054;SDS011;31788;6.954;-71.872;2022-09-09T01:29:06;7.22;;;6.50;;
46054;SDS011;31788;6.954;-71.872;2022-09-09T01:31:36;7.15;;;6.38;;
46054;SDS011;31788;6.954;-71.872;2022-09-09T01:34:10;11.20;;;6.63;;
46054;SDS011;31788;6.954;-71.872;2022-09-09T01:36:39;7.72;;;6.43;;
46054;SDS011;31788;6.954;-71.872;2022-09-09T01:39:11;8.50;;;6.20;;
46054;SDS011;31788;6.954;-71.872;2022-09-09T01:41:38;7.70;;;6.00;;
46054;SDS011;31788;6.954;-71.872;2022-09-09T01:44:05;7.95;;;6.40;;
46054;SDS011;31788;6.954;-71.872;2022-09-09T01:46:34;8.07;;;6.00;;
46054;SDS011;31788;6.954;-71.872;2022-09-09T01:51:57;8.13;;;6.57;;
46054;SDS011;31788;6.954;-71.872;2022-09-09T01:54:42;9.15;;;6.43;;
46054;SDS011;31788;6.954;-71.872;2022-09-09T02:00:38;7.43;;;6.35;;
46054;SDS011;31788;6.954;-71.872;2022-09-09T02:06:00;7.23;;;5.90;;
46054;SDS011;31788;6.954;-71.872;2022-09-09T02:08:53;9.23;;;6.05;;
46054;SDS011;31788;6.954;-71.872;2022-09-09T02:11:24;8.87;;;6.33;;
46054;SDS011;31788;6.954;-71.872;2022-09-09T02:13:54;11.02;;;6.43;;
46054;SDS011;31788;6.954;-71.872;2022-09-09T02:19:03;7.35;;;6.20;;
46054;SDS011;31788;6.954;-71.872;2022-09-09T02:21:34;9.02;;;6.22;;
46054;SDS011;31788;6.954;-71.872;2022-09-09T02:24:03;7.40;;;5.82;;
46054;SDS011;31788;6.954;-71.872;2022-09-09T02:26:37;9.05;;;6.57;;
46054;SDS011;31788;6.954;-71.872;2022-09-09T02:29:08;7.75;;;5.80;;
46054;SDS011;31788;6.954;-71.872;2022-09-09T02:31:44;7.88;;;5.75;;
46054;SDS011;31788;6.954;-71.872;2022-09-09T02:34:13;8.20;;;5.80;;
46054;SDS011;31788;6.954;-71.872;2022-09-09T02:36:41;9.18;;;6.00;;
46054;SDS011;31788;6.954;-71.872;2022-09-09T02:39:10;7.13;;;5.88;;
46054;SDS011;31788;6.954;-71.872;2022-09-09T02:41:39;8.25;;;6.03;;
46054;SDS011;31788;6.954;-71.872;2022-09-09T02:44:13;8.50;;;6.00;;
46054;SDS011;31788;6.954;-71.872;2022-09-09T02:52:20;8.93;;;5.50;;
46054;SDS011;31788;6.954;-71.872;2022-09-09T02:55:01;8.18;;;5.95;;
46054;SDS011;31788;6.954;-71.872;2022-09-09T02:57:34;7.13;;;5.87;;
46054;SDS011;31788;6.954;-71.872;2022-09-09T03:00:02;9.60;;;6.35;;
46054;SDS011;31788;6.954;-71.872;2022-09-09T03:02:30;8.23;;;5.90;;
46054;SDS011;31788;6.954;-71.872;2022-09-09T03:04:57;7.38;;;5.85;;
46054;SDS011;31788;6.954;-71.872;2022-09-09T03:07:23;7.70;;;6.10;;
46054;SDS011;31788;6.954;-71.872;2022-09-09T03:09:50;8.70;;;6.40;;
46054;SDS011;31788;6.954;-71.872;2022-09-09T03:12:20;14.07;;;11.23;;
46054;SDS011;31788;6.954;-71.872;2022-09-09T03:14:49;20.25;;;17.02;;
46054;SDS011;31788;6.954;-71.872;2022-09-09T03:17:15;29.33;;;22.42;;
46054;SDS011;31788;6.954;-71.872;2022-09-09T03:19:42;30.90;;;23.45;;
46054;SDS011;31788;6.954;-71.872;2022-09-09T03:22:10;28.13;;;21.35;;
46054;SDS011;31788;6.954;-71.872;2022-09-09T03:24:40;17.17;;;13.95;;
46054;SDS011;31788;6.954;-71.872;2022-09-09T03:27:06;27.77;;;20.83;;
46054;SDS011;31788;6.954;-71.872;2022-09-09T03:29:33;32.40;;;25.17;;
46054;SDS011;31788;6.954;-71.872;2022-09-09T03:31:59;32.90;;;24.52;;
46054;SDS011;31788;6.954;-71.872;2022-09-09T03:34:26;19.42;;;15.05;;
46054;SDS011;31788;6.954;-71.872;2022-09-09T03:36:54;18.60;;;14.27;;
46054;SDS011;31788;6.954;-71.872;2022-09-09T03:39:22;16.05;;;12.25;;
46054;SDS011;31788;6.954;-71.872;2022-09-09T03:41:48;16.37;;;13.47;;
46054;SDS011;31788;6.954;-71.872;2022-09-09T03:44:15;17.50;;;12.45;;
46054;SDS011;31788;6.954;-71.872;2022-09-09T03:46:41;12.25;;;9.85;;
46054;SDS011;31788;6.954;-71.872;2022-09-09T03:49:08;17.35;;;10.10;;
46054;SDS011;31788;6.954;-71.872;2022-09-09T03:51:35;13.23;;;8.80;;
46054;SDS011;31788;6.954;-71.872;2022-09-09T03:54:04;11.15;;;7.43;;
46054;SDS011;31788;6.954;-71.872;2022-09-09T03:56:33;12.67;;;7.50;;
46054;SDS011;31788;6.954;-71.872;2022-09-09T03:59:00;8.05;;;6.18;;
46054;SDS011;31788;6.954;-71.872;2022-09-09T04:01:27;8.45;;;6.90;;
46054;SDS011;31788;6.954;-71.872;2022-09-09T04:03:54;10.23;;;6.72;;
46054;SDS011;31788;6.954;-71.872;2022-09-09T04:06:23;8.33;;;6.50;;
46054;SDS011;31788;6.954;-71.872;2022-09-09T04:08:50;11.15;;;6.55;;
46054;SDS011;31788;6.954;-71.872;2022-09-09T04:11:18;6.93;;;6.20;;
46054;SDS011;31788;6.954;-71.872;2022-09-09T04:13:45;8.95;;;6.53;;
46054;SDS011;31788;6.954;-71.872;2022-09-09T04:16:11;7.25;;;5.82;;
46054;SDS011;31788;6.954;-71.872;2022-09-09T04:18:39;8.35;;;6.25;;
46054;SDS011;31788;6.954;-71.872;2022-09-09T04:21:06;7.97;;;6.60;;
46054;SDS011;31788;6.954;-71.872;2022-09-09T04:23:35;10.73;;;7.35;;
46054;SDS011;31788;6.954;-71.872;2022-09-09T04:26:02;9.80;;;6.72;;
46054;SDS011;31788;6.954;-71.872;2022-09-09T04:28:30;7.90;;;6.72;;
46054;SDS011;31788;6.954;-71.872;2022-09-09T04:31:03;9.15;;;6.88;;
46054;SDS011;31788;6.954;-71.872;2022-09-09T04:33:31;10.17;;;6.83;;
46054;SDS011;31788;6.954;-71.872;2022-09-09T04:35:58;8.57;;;6.65;;
46054;SDS011;31788;6.954;-71.872;2022-09-09T04:38:24;9.90;;;6.87;;
46054;SDS011;31788;6.954;-71.872;2022-09-09T04:40:51;10.65;;;7.13;;
46054;SDS011;31788;6.954;-71.872;2022-09-09T04:43:19;8.43;;;6.50;;
46054;SDS011;31788;6.954;-71.872;2022-09-09T04:45:49;10.90;;;6.40;;
46054;SDS011;31788;6.954;-71.872;2022-09-09T04:48:17;10.87;;;6.90;;
46054;SDS011;31788;6.954;-71.872;2022-09-09T04:50:53;9.70;;;6.57;;
46054;SDS011;31788;6.954;-71.872;2022-09-09T04:53:40;10.55;;;6.28;;
46054;SDS011;31788;6.954;-71.872;2022-09-09T04:56:08;9.18;;;5.72;;
46054;SDS011;31788;6.954;-71.872;2022-09-09T04:58:35;8.10;;;6.00;;
46054;SDS011;31788;6.954;-71.872;2022-09-09T05:01:03;15.70;;;6.65;;
46054;SDS011;31788;6.954;-71.872;2022-09-09T05:03:37;12.98;;;6.13;;
46054;SDS011;31788;6.954;-71.872;2022-09-09T05:06:08;8.05;;;6.10;;
46054;SDS011;31788;6.954;-71.872;2022-09-09T05:08:37;10.43;;;5.93;;
46054;SDS011;31788;6.954;-71.872;2022-09-09T05:11:13;8.75;;;6.05;;
46054;SDS011;31788;6.954;-71.872;2022-09-09T05:13:48;20.13;;;6.53;;
46054;SDS011;31788;6.954;-71.872;2022-09-09T05:16:15;13.15;;;5.93;;
46054;SDS011;31788;6.954;-71.872;2022-09-09T05:18:43;10.10;;;6.10;;
46054;SDS011;31788;6.954;-71.872;2022-09-09T05:21:10;11.23;;;6.15;;
46054;SDS011;31788;6.954;-71.872;2022-09-09T05:23:38;9.25;;;6.35;;
46054;SDS011;31788;6.954;-71.872;2022-09-09T05:26:05;8.65;;;5.97;;
46054;SDS011;31788;6.954;-71.872;2022-09-09T05:28:35;9.07;;;6.20;;
46054;SDS011;31788;6.954;-71.872;2022-09-09T05:31:03;8.87;;;6.40;;
46054;SDS011;31788;6.954;-71.872;2022-09-09T05:33:35;10.32;;;6.53;;
46054;SDS011;31788;6.954;-71.872;2022-09-09T05:36:05;8.33;;;6.60;;
46054;SDS011;31788;6.954;-71.872;2022-09-09T05:38:34;10.23;;;6.57;;
46054;SDS011;31788;6.954;-71.872;2022-09-09T05:41:01;12.60;;;6.50;;
46054;SDS011;31788;6.954;-71.872;2022-09-09T05:43:28;8.43;;;6.30;;
46054;SDS011;31788;6.954;-71.872;2022-09-09T05:46:15;8.68;;;6.57;;
46054;SDS011;31788;6.954;-71.872;2022-09-09T05:48:46;10.48;;;6.88;;
46054;SDS011;31788;6.954;-71.872;2022-09-09T05:51:16;9.85;;;6.80;;
46054;SDS011;31788;6.954;-71.872;2022-09-09T05:53:44;9.30;;;7.03;;
46054;SDS011;31788;6.954;-71.872;2022-09-09T05:56:15;9.40;;;6.80;;
46054;SDS011;31788;6.954;-71.872;2022-09-09T05:58:43;10.60;;;7.33;;
46054;SDS011;31788;6.954;-71.872;2022-09-09T06:01:13;11.65;;;7.13;;
46054;SDS011;31788;6.954;-71.872;2022-09-09T06:03:59;10.90;;;7.20;;
46054;SDS011;31788;6.954;-71.872;2022-09-09T06:06:33;11.35;;;7.05;;
46054;SDS011;31788;6.954;-71.872;2022-09-09T06:09:02;13.13;;;7.20;;
46054;SDS011;31788;6.954;-71.872;2022-09-09T06:11:32;9.55;;;7.05;;
46054;SDS011;31788;6.954;-71.872;2022-09-09T06:14:00;9.07;;;7.07;;
46054;SDS011;31788;6.954;-71.872;2022-09-09T06:16:28;8.90;;;7.07;;
46054;SDS011;31788;6.954;-71.872;2022-09-09T06:18:57;9.88;;;6.65;;
46054;SDS011;31788;6.954;-71.872;2022-09-09T06:21:26;10.70;;;6.90;;
46054;SDS011;31788;6.954;-71.872;2022-09-09T06:23:54;8.90;;;7.15;;
46054;SDS011;31788;6.954;-71.872;2022-09-09T06:26:25;8.90;;;6.90;;
46054;SDS011;31788;6.954;-71.872;2022-09-09T06:28:54;8.07;;;7.10;;
46054;SDS011;31788;6.954;-71.872;2022-09-09T06:31:22;10.30;;;6.82;;
46054;SDS011;31788;6.954;-71.872;2022-09-09T06:33:50;9.23;;;6.47;;
46054;SDS011;31788;6.954;-71.872;2022-09-09T06:36:19;9.80;;;6.43;;
46054;SDS011;31788;6.954;-71.872;2022-09-09T06:38:50;9.82;;;6.80;;
46054;SDS011;31788;6.954;-71.872;2022-09-09T06:41:18;10.75;;;6.90;;
46054;SDS011;31788;6.954;-71.872;2022-09-09T06:43:46;15.88;;;7.60;;
46054;SDS011;31788;6.954;-71.872;2022-09-09T06:46:14;18.27;;;6.75;;
46054;SDS011;31788;6.954;-71.872;2022-09-09T06:48:42;18.92;;;7.18;;
46054;SDS011;31788;6.954;-71.872;2022-09-09T06:51:14;10.27;;;6.83;;
46054;SDS011;31788;6.954;-71.872;2022-09-09T06:53:43;12.13;;;6.90;;
46054;SDS011;31788;6.954;-71.872;2022-09-09T06:58:49;10.57;;;6.95;;
46054;SDS011;31788;6.954;-71.872;2022-09-09T07:01:18;8.88;;;6.22;;
46054;SDS011;31788;6.954;-71.872;2022-09-09T07:03:47;17.08;;;7.05;;
46054;SDS011;31788;6.954;-71.872;2022-09-09T07:06:25;9.20;;;6.30;;
46054;SDS011;31788;6.954;-71.872;2022-09-09T07:09:00;9.63;;;6.43;;
46054;SDS011;31788;6.954;-71.872;2022-09-09T07:11:30;7.80;;;6.28;;
46054;SDS011;31788;6.954;-71.872;2022-09-09T07:13:59;8.75;;;6.55;;
46054;SDS011;31788;6.954;-71.872;2022-09-09T07:16:26;11.13;;;6.28;;
46054;SDS011;31788;6.954;-71.872;2022-09-09T07:18:54;10.18;;;6.68;;
46054;SDS011;31788;6.954;-71.872;2022-09-09T07:21:23;11.32;;;6.82;;
46054;SDS011;31788;6.954;-71.872;2022-09-09T07:23:54;8.83;;;6.57;;
46054;SDS011;31788;6.954;-71.872;2022-09-09T07:26:21;20.27;;;7.13;;
46054;SDS011;31788;6.954;-71.872;2022-09-09T07:28:52;13.20;;;6.70;;
46054;SDS011;31788;6.954;-71.872;2022-09-09T07:31:23;10.85;;;6.45;;
46054;SDS011;31788;6.954;-71.872;2022-09-09T07:33:51;11.10;;;7.10;;
46054;SDS011;31788;6.954;-71.872;2022-09-09T07:36:20;11.05;;;7.15;;
46054;SDS011;31788;6.954;-71.872;2022-09-09T07:38:52;9.15;;;7.13;;
46054;SDS011;31788;6.954;-71.872;2022-09-09T07:43:52;12.07;;;7.05;;
46054;SDS011;31788;6.954;-71.872;2022-09-09T07:46:20;9.93;;;7.10;;
46054;SDS011;31788;6.954;-71.872;2022-09-09T07:48:49;10.35;;;7.28;;
46054;SDS011;31788;6.954;-71.872;2022-09-09T07:51:39;13.43;;;6.83;;
46054;SDS011;31788;6.954;-71.872;2022-09-09T07:54:09;11.77;;;6.83;;
46054;SDS011;31788;6.954;-71.872;2022-09-09T07:56:37;10.50;;;6.90;;
46054;SDS011;31788;6.954;-71.872;2022-09-09T07:59:05;13.38;;;6.72;;
46054;SDS011;31788;6.954;-71.872;2022-09-09T08:01:36;83.43;;;12.07;;
46054;SDS011;31788;6.954;-71.872;2022-09-09T08:04:06;8.95;;;6.50;;
46054;SDS011;31788;6.954;-71.872;2022-09-09T08:06:36;10.85;;;7.10;;
46054;SDS011;31788;6.954;-71.872;2022-09-09T08:09:06;10.07;;;7.07;;
46054;SDS011;31788;6.954;-71.872;2022-09-09T08:11:33;10.25;;;7.25;;
46054;SDS011;31788;6.954;-71.872;2022-09-09T08:14:01;9.17;;;6.97;;
46054;SDS011;31788;6.954;-71.872;2022-09-09T08:16:30;9.63;;;6.65;;
46054;SDS011;31788;6.954;-71.872;2022-09-09T08:18:58;12.48;;;6.90;;
46054;SDS011;31788;6.954;-71.872;2022-09-09T08:21:29;10.50;;;7.20;;
46054;SDS011;31788;6.954;-71.872;2022-09-09T08:23:57;12.05;;;7.28;;
46054;SDS011;31788;6.954;-71.872;2022-09-09T08:26:26;8.38;;;6.78;;
46054;SDS011;31788;6.954;-71.872;2022-09-09T08:28:55;8.40;;;7.20;;
46054;SDS011;31788;6.954;-71.872;2022-09-09T08:31:24;9.40;;;7.03;;
46054;SDS011;31788;6.954;-71.872;2022-09-09T08:33:56;10.70;;;7.45;;
46054;SDS011;31788;6.954;-71.872;2022-09-09T08:36:25;10.10;;;7.20;;
46054;SDS011;31788;6.954;-71.872;2022-09-09T08:38:54;10.07;;;7.80;;
46054;SDS011;31788;6.954;-71.872;2022-09-09T08:43:51;13.63;;;8.00;;
46054;SDS011;31788;6.954;-71.872;2022-09-09T08:46:28;10.07;;;7.18;;
46054;SDS011;31788;6.954;-71.872;2022-09-09T08:51:57;10.65;;;7.00;;
46054;SDS011;31788;6.954;-71.872;2022-09-09T08:54:24;11.50;;;7.40;;
46054;SDS011;31788;6.954;-71.872;2022-09-09T08:56:58;18.30;;;7.90;;
46054;SDS011;31788;6.954;-71.872;2022-09-09T08:59:25;14.63;;;7.10;;
46054;SDS011;31788;6.954;-71.872;2022-09-09T09:07:19;10.15;;;7.40;;
46054;SDS011;31788;6.954;-71.872;2022-09-09T09:12:32;11.88;;;7.63;;
46054;SDS011;31788;6.954;-71.872;2022-09-09T09:15:09;13.13;;;7.25;;
46054;SDS011;31788;6.954;-71.872;2022-09-09T09:17:42;9.70;;;7.55;;
46054;SDS011;31788;6.954;-71.872;2022-09-09T09:20:12;11.27;;;8.20;;
46054;SDS011;31788;6.954;-71.872;2022-09-09T09:22:51;12.20;;;7.65;;
46054;SDS011;31788;6.954;-71.872;2022-09-09T09:25:27;41.22;;;9.95;;
46054;SDS011;31788;6.954;-71.872;2022-09-09T09:28:07;10.13;;;7.73;;
46054;SDS011;31788;6.954;-71.872;2022-09-09T09:30:46;11.57;;;7.80;;
46054;SDS011;31788;6.954;-71.872;2022-09-09T09:36:02;11.90;;;8.30;;
46054;SDS011;31788;6.954;-71.872;2022-09-09T09:38:32;9.50;;;7.90;;
46054;SDS011;31788;6.954;-71.872;2022-09-09T09:40:59;13.93;;;8.00;;
46054;SDS011;31788;6.954;-71.872;2022-09-09T09:43:30;10.95;;;7.80;;
46054;SDS011;31788;6.954;-71.872;2022-09-09T09:45:58;11.68;;;7.80;;
46054;SDS011;31788;6.954;-71.872;2022-09-09T09:48:26;10.63;;;7.88;;
46054;SDS011;31788;6.954;-71.872;2022-09-09T09:50:56;10.20;;;8.20;;
46054;SDS011;31788;6.954;-71.872;2022-09-09T09:53:33;10.50;;;8.57;;
46054;SDS011;31788;6.954;-71.872;2022-09-09T09:56:03;12.07;;;9.10;;
46054;SDS011;31788;6.954;-71.872;2022-09-09T09:58:48;13.52;;;8.40;;
46054;SDS011;31788;6.954;-71.872;2022-09-09T10:01:23;10.75;;;8.38;;
46054;SDS011;31788;6.954;-71.872;2022-09-09T10:04:00;11.17;;;9.00;;
46054;SDS011;31788;6.954;-71.872;2022-09-09T10:06:49;14.40;;;8.63;;
46054;SDS011;31788;6.954;-71.872;2022-09-09T10:09:25;13.25;;;9.20;;
46054;SDS011;31788;6.954;-71.872;2022-09-09T10:12:18;11.55;;;8.27;;
46054;SDS011;31788;6.954;-71.872;2022-09-09T10:20:24;12.20;;;8.50;;
46054;SDS011;31788;6.954;-71.872;2022-09-09T10:26:16;10.95;;;8.45;;
46054;SDS011;31788;6.954;-71.872;2022-09-09T10:34:56;11.88;;;9.02;;
46054;SDS011;31788;6.954;-71.872;2022-09-09T10:46:16;15.77;;;10.38;;
46054;SDS011;31788;6.954;-71.872;2022-09-09T10:49:20;16.67;;;9.50;;
46054;SDS011;31788;6.954;-71.872;2022-09-09T10:57:25;18.25;;;9.50;;
46054;SDS011;31788;6.954;-71.872;2022-09-09T11:00:20;19.48;;;9.60;;
46054;SDS011;31788;6.954;-71.872;2022-09-09T11:02:56;16.00;;;9.27;;
46054;SDS011;31788;6.954;-71.872;2022-09-09T11:08:15;10.80;;;8.30;;
46054;SDS011;31788;6.954;-71.872;2022-09-09T11:10:51;10.82;;;8.85;;
46054;SDS011;31788;6.954;-71.872;2022-09-09T11:21:47;11.75;;;9.15;;
46054;SDS011;31788;6.954;-71.872;2022-09-09T11:40:56;11.13;;;9.50;;
46054;SDS011;31788;6.954;-71.872;2022-09-09T11:46:05;10.98;;;9.20;;
46054;SDS011;31788;6.954;-71.872;2022-09-09T11:51:09;12.43;;;9.13;;
46054;SDS011;31788;6.954;-71.872;2022-09-09T11:56:31;13.88;;;9.20;;
46054;SDS011;31788;6.954;-71.872;2022-09-09T12:01:50;11.23;;;9.60;;
46054;SDS011;31788;6.954;-71.872;2022-09-09T12:12:54;10.70;;;9.60;;
46054;SDS011;31788;6.954;-71.872;2022-09-09T12:15:22;10.82;;;9.60;;
46054;SDS011;31788;6.954;-71.872;2022-09-09T12:17:55;23.25;;;21.17;;
46054;SDS011;31788;6.954;-71.872;2022-09-09T12:20:34;12.63;;;11.38;;
46054;SDS011;31788;6.954;-71.872;2022-09-09T12:28:52;12.45;;;10.13;;
46054;SDS011;31788;6.954;-71.872;2022-09-09T12:31:33;12.48;;;10.18;;
46054;SDS011;31788;6.954;-71.872;2022-09-09T12:34:24;13.13;;;10.20;;
46054;SDS011;31788;6.954;-71.872;2022-09-09T12:37:16;13.88;;;10.43;;
46054;SDS011;31788;6.954;-71.872;2022-09-09T12:39:45;11.73;;;10.32;;
46054;SDS011;31788;6.954;-71.872;2022-09-09T12:42:39;12.93;;;10.32;;
46054;SDS011;31788;6.954;-71.872;2022-09-09T12:45:14;12.05;;;9.98;;
46054;SDS011;31788;6.954;-71.872;2022-09-09T12:47:47;12.57;;;10.33;;
46054;SDS011;31788;6.954;-71.872;2022-09-09T12:50:29;12.10;;;10.80;;
46054;SDS011;31788;6.954;-71.872;2022-09-09T12:53:00;11.65;;;10.05;;
46054;SDS011;31788;6.954;-71.872;2022-09-09T12:55:48;13.82;;;10.82;;
46054;SDS011;31788;6.954;-71.872;2022-09-09T12:58:20;13.23;;;10.70;;
46054;SDS011;31788;6.954;-71.872;2022-09-09T13:00:50;12.07;;;10.70;;
46054;SDS011;31788;6.954;-71.872;2022-09-09T13:03:19;13.57;;;10.50;;
46054;SDS011;31788;6.954;-71.872;2022-09-09T13:05:46;11.88;;;10.38;;
46054;SDS011;31788;6.954;-71.872;2022-09-09T13:08:14;13.27;;;10.70;;
46054;SDS011;31788;6.954;-71.872;2022-09-09T13:13:29;13.07;;;11.07;;
46054;SDS011;31788;6.954;-71.872;2022-09-09T13:16:03;12.57;;;10.45;;
46054;SDS011;31788;6.954;-71.872;2022-09-09T13:18:34;11.20;;;10.00;;
46054;SDS011;31788;6.954;-71.872;2022-09-09T13:21:05;13.10;;;10.15;;
46054;SDS011;31788;6.954;-71.872;2022-09-09T13:23:35;11.68;;;10.25;;
46054;SDS011;31788;6.954;-71.872;2022-09-09T13:26:04;11.07;;;9.98;;
46054;SDS011;31788;6.954;-71.872;2022-09-09T13:28:44;13.03;;;9.90;;
46054;SDS011;31788;6.954;-71.872;2022-09-09T13:31:27;11.52;;;9.55;;
46054;SDS011;31788;6.954;-71.872;2022-09-09T13:33:56;13.83;;;10.03;;
46054;SDS011;31788;6.954;-71.872;2022-09-09T13:36:29;11.38;;;10.20;;
46054;SDS011;31788;6.954;-71.872;2022-09-09T13:39:00;12.00;;;10.10;;
46054;SDS011;31788;6.954;-71.872;2022-09-09T13:41:35;11.98;;;9.80;;
46054;SDS011;31788;6.954;-71.872;2022-09-09T13:44:14;11.90;;;10.25;;
46054;SDS011;31788;6.954;-71.872;2022-09-09T13:46:48;10.88;;;9.63;;
46054;SDS011;31788;6.954;-71.872;2022-09-09T13:49:29;13.20;;;10.33;;
46054;SDS011;31788;6.954;-71.872;2022-09-09T13:54:42;13.10;;;10.43;;
46054;SDS011;31788;6.954;-71.872;2022-09-09T13:57:19;11.43;;;9.88;;
46054;SDS011;31788;6.954;-71.872;2022-09-09T13:59:49;12.45;;;10.35;;
46054;SDS011;31788;6.954;-71.872;2022-09-09T14:02:17;14.00;;;10.07;;
46054;SDS011;31788;6.954;-71.872;2022-09-09T14:04:46;12.30;;;9.73;;
46054;SDS011;31788;6.954;-71.872;2022-09-09T14:07:16;20.42;;;10.25;;
46054;SDS011;31788;6.954;-71.872;2022-09-09T14:09:44;15.23;;;9.77;;
46054;SDS011;31788;6.954;-71.872;2022-09-09T14:12:15;12.63;;;10.05;;
46054;SDS011;31788;6.954;-71.872;2022-09-09T14:14:43;15.30;;;10.27;;
46054;SDS011;31788;6.954;-71.872;2022-09-09T14:17:10;12.40;;;10.05;;
46054;SDS011;31788;6.954;-71.872;2022-09-09T14:19:36;16.55;;;10.40;;
46054;SDS011;31788;6.954;-71.872;2022-09-09T14:22:03;21.30;;;11.07;;
46054;SDS011;31788;6.954;-71.872;2022-09-09T14:24:29;11.90;;;10.10;;
46054;SDS011;31788;6.954;-71.872;2022-09-09T14:26:56;12.40;;;10.40;;
46054;SDS011;31788;6.954;-71.872;2022-09-09T14:29:23;14.82;;;10.45;;
46054;SDS011;31788;6.954;-71.872;2022-09-09T14:31:51;13.75;;;10.93;;
46054;SDS011;31788;6.954;-71.872;2022-09-09T14:34:18;14.73;;;10.57;;
46054;SDS011;31788;6.954;-71.872;2022-09-09T14:36:45;15.20;;;10.75;;
46054;SDS011;31788;6.954;-71.872;2022-09-09T14:39:12;12.90;;;10.70;;
46054;SDS011;31788;6.954;-71.872;2022-09-09T14:41:38;14.17;;;11.10;;
46054;SDS011;31788;6.954;-71.872;2022-09-09T14:44:05;13.15;;;10.85;;
46054;SDS011;31788;6.954;-71.872;2022-09-09T14:46:31;16.35;;;11.38;;
46054;SDS011;31788;6.954;-71.872;2022-09-09T14:48:58;12.27;;;10.73;;
46054;SDS011;31788;6.954;-71.872;2022-09-09T14:51:26;15.68;;;12.00;;
46054;SDS011;31788;6.954;-71.872;2022-09-09T14:53:57;14.75;;;12.00;;
46054;SDS011;31788;6.954;-71.872;2022-09-09T14:56:25;14.00;;;12.50;;
46054;SDS011;31788;6.954;-71.872;2022-09-09T14:58:54;13.50;;;11.90;;
46054;SDS011;31788;6.954;-71.872;2022-09-09T15:01:23;17.05;;;12.55;;
46054;SDS011;31788;6.954;-71.872;2022-09-09T15:04:02;14.90;;;11.95;;
46054;SDS011;31788;6.954;-71.872;2022-09-09T15:06:31;13.27;;;11.90;;
46054;SDS011;31788;6.954;-71.872;2022-09-09T15:08:59;14.00;;;12.45;;
46054;SDS011;31788;6.954;-71.872;2022-09-09T15:11:27;38.67;;;13.65;;
46054;SDS011;31788;6.954;-71.872;2022-09-09T15:13:56;14.68;;;12.77;;
46054;SDS011;31788;6.954;-71.872;2022-09-09T15:16:24;23.83;;;13.00;;
46054;SDS011;31788;6.954;-71.872;2022-09-09T15:18:53;20.48;;;13.48;;
46054;SDS011;31788;6.954;-71.872;2022-09-09T15:21:23;18.05;;;13.15;;
46054;SDS011;31788;6.954;-71.872;2022-09-09T15:23:54;30.70;;;14.75;;
46054;SDS011;31788;6.954;-71.872;2022-09-09T15:26:23;24.63;;;13.95;;
46054;SDS011;31788;6.954;-71.872;2022-09-09T15:28:50;23.30;;;13.40;;
46054;SDS011;31788;6.954;-71.872;2022-09-09T15:31:21;17.63;;;13.65;;
46054;SDS011;31788;6.954;-71.872;2022-09-09T15:36:18;21.17;;;13.82;;
46054;SDS011;31788;6.954;-71.872;2022-09-09T15:38:49;17.23;;;14.25;;
46054;SDS011;31788;6.954;-71.872;2022-09-09T15:41:16;16.47;;;14.20;;
46054;SDS011;31788;6.954;-71.872;2022-09-09T15:43:45;16.17;;;13.40;;
46054;SDS011;31788;6.954;-71.872;2022-09-09T15:51:46;16.48;;;13.70;;
46054;SDS011;31788;6.954;-71.872;2022-09-09T15:54:17;16.33;;;13.80;;
46054;SDS011;31788;6.954;-71.872;2022-09-09T15:56:47;15.60;;;13.93;;
46054;SDS011;31788;6.954;-71.872;2022-09-09T15:59:21;16.75;;;14.32;;
46054;SDS011;31788;6.954;-71.872;2022-09-09T16:01:48;17.52;;;13.90;;
46054;SDS011;31788;6.954;-71.872;2022-09-09T16:04:18;15.55;;;13.73;;
46054;SDS011;31788;6.954;-71.872;2022-09-09T16:06:59;17.63;;;14.07;;
46054;SDS011;31788;6.954;-71.872;2022-09-09T16:09:30;15.60;;;14.00;;
46054;SDS011;31788;6.954;-71.872;2022-09-09T16:11:58;17.52;;;13.57;;
46054;SDS011;31788;6.954;-71.872;2022-09-09T16:14:33;15.88;;;13.70;;
46054;SDS011;31788;6.954;-71.872;2022-09-09T16:17:01;15.88;;;14.07;;
46054;SDS011;31788;6.954;-71.872;2022-09-09T16:19:29;16.50;;;13.25;;
46054;SDS011;31788;6.954;-71.872;2022-09-09T16:21:55;15.85;;;13.70;;
46054;SDS011;31788;6.954;-71.872;2022-09-09T16:24:22;14.90;;;13.40;;
46054;SDS011;31788;6.954;-71.872;2022-09-09T16:26:50;15.48;;;12.93;;
46054;SDS011;31788;6.954;-71.872;2022-09-09T16:29:20;15.40;;;13.05;;
46054;SDS011;31788;6.954;-71.872;2022-09-09T16:31:48;15.00;;;13.43;;
46054;SDS011;31788;6.954;-71.872;2022-09-09T16:34:16;14.00;;;12.60;;
46054;SDS011;31788;6.954;-71.872;2022-09-09T16:36:44;15.52;;;13.10;;
46054;SDS011;31788;6.954;-71.872;2022-09-09T16:39:12;14.95;;;13.45;;
46054;SDS011;31788;6.954;-71.872;2022-09-09T16:41:41;15.52;;;13.52;;
46054;SDS011;31788;6.954;-71.872;2022-09-09T16:44:09;14.40;;;12.90;;
46054;SDS011;31788;6.954;-71.872;2022-09-09T16:46:41;15.45;;;13.05;;
46054;SDS011;31788;6.954;-71.872;2022-09-09T16:49:12;17.27;;;13.60;;
46054;SDS011;31788;6.954;-71.872;2022-09-09T16:51:44;29.45;;;13.18;;
46054;SDS011;31788;6.954;-71.872;2022-09-09T16:54:12;15.75;;;13.18;;
46054;SDS011;31788;6.954;-71.872;2022-09-09T16:56:43;22.70;;;13.98;;
46054;SDS011;31788;6.954;-71.872;2022-09-09T16:59:13;17.20;;;12.90;;
46054;SDS011;31788;6.954;-71.872;2022-09-09T17:01:42;17.50;;;12.70;;
46054;SDS011;31788;6.954;-71.872;2022-09-09T17:04:10;15.30;;;12.77;;
46054;SDS011;31788;6.954;-71.872;2022-09-09T17:06:46;15.63;;;12.98;;
46054;SDS011;31788;6.954;-71.872;2022-09-09T17:09:14;16.33;;;13.00;;
46054;SDS011;31788;6.954;-71.872;2022-09-09T17:11:41;19.17;;;13.02;;
46054;SDS011;31788;6.954;-71.872;2022-09-09T17:14:10;16.70;;;12.18;;
46054;SDS011;31788;6.954;-71.872;2022-09-09T17:16:39;46.30;;;14.50;;
46054;SDS011;31788;6.954;-71.872;2022-09-09T17:19:08;16.05;;;12.18;;
46054;SDS011;31788;6.954;-71.872;2022-09-09T17:21:36;18.58;;;12.73;;
46054;SDS011;31788;6.954;-71.872;2022-09-09T17:24:03;14.65;;;12.20;;
46054;SDS011;31788;6.954;-71.872;2022-09-09T17:26:30;13.52;;;12.13;;
46054;SDS011;31788;6.954;-71.872;2022-09-09T17:29:01;13.23;;;11.93;;
46054;SDS011;31788;6.954;-71.872;2022-09-09T17:31:29;14.70;;;12.30;;